sensor_id;sensor_type;location;lat;lon;timestamp;P1;durP1;ratioP1;P2;durP2;ratioP2
5616;SDS011;2830;50.656;7.568;2023-06-19T00:02:14;28.80;;;11.57;;
5616;SDS011;2830;50.656;7.568;2023-06-19T00:04:41;24.63;;;10.20;;
5616;SDS011;2830;50.656;7.568;2023-06-19T00:07:08;23.83;;;10.77;;
5616;SDS011;2830;50.656;7.568;2023-06-19T00:09:35;24.23;;;9.37;;
5616;SDS011;2830;50.656;7.568;2023-06-19T00:12:01;23.70;;;9.97;;
5616;SDS011;2830;50.656;7.568;2023-06-19T00:14:30;22.50;;;9.70;;
5616;SDS011;2830;50.656;7.568;2023-06-19T00:16:57;24.73;;;10.77;;
5616;SDS011;2830;50.656;7.568;2023-06-19T00:19:24;33.20;;;12.40;;
5616;SDS011;2830;50.656;7.568;2023-06-19T00:21:50;29.20;;;13.40;;
5616;SDS011;2830;50.656;7.568;2023-06-19T00:24:17;23.43;;;8.80;;
5616;SDS011;2830;50.656;7.568;2023-06-19T00:26:44;22.20;;;9.50;;
5616;SDS011;2830;50.656;7.568;2023-06-19T00:29:10;30.97;;;10.07;;
5616;SDS011;2830;50.656;7.568;2023-06-19T00:31:37;21.60;;;9.00;;
5616;SDS011;2830;50.656;7.568;2023-06-19T00:34:04;24.57;;;10.70;;
5616;SDS011;2830;50.656;7.568;2023-06-19T00:36:31;23.27;;;9.80;;
5616;SDS011;2830;50.656;7.568;2023-06-19T00:38:58;22.03;;;7.70;;
5616;SDS011;2830;50.656;7.568;2023-06-19T00:41:25;21.10;;;9.50;;
5616;SDS011;2830;50.656;7.568;2023-06-19T00:43:53;25.17;;;9.50;;
5616;SDS011;2830;50.656;7.568;2023-06-19T00:46:20;22.97;;;9.63;;
5616;SDS011;2830;50.656;7.568;2023-06-19T00:48:47;24.30;;;9.10;;
5616;SDS011;2830;50.656;7.568;2023-06-19T00:51:15;21.70;;;10.20;;
5616;SDS011;2830;50.656;7.568;2023-06-19T00:53:41;22.80;;;9.60;;
5616;SDS011;2830;50.656;7.568;2023-06-19T00:56:08;23.13;;;10.00;;
5616;SDS011;2830;50.656;7.568;2023-06-19T00:58:35;23.07;;;10.23;;
5616;SDS011;2830;50.656;7.568;2023-06-19T01:01:02;23.37;;;9.33;;
5616;SDS011;2830;50.656;7.568;2023-06-19T01:03:35;25.43;;;10.60;;
5616;SDS011;2830;50.656;7.568;2023-06-19T01:06:03;27.07;;;9.90;;
5616;SDS011;2830;50.656;7.568;2023-06-19T01:11:36;24.63;;;10.90;;
5616;SDS011;2830;50.656;7.568;2023-06-19T01:14:08;25.27;;;10.80;;
5616;SDS011;2830;50.656;7.568;2023-06-19T01:16:39;30.07;;;12.03;;
5616;SDS011;2830;50.656;7.568;2023-06-19T01:19:06;27.30;;;12.53;;
5616;SDS011;2830;50.656;7.568;2023-06-19T01:21:38;23.70;;;11.50;;
5616;SDS011;2830;50.656;7.568;2023-06-19T01:24:05;26.80;;;12.07;;
5616;SDS011;2830;50.656;7.568;2023-06-19T01:26:32;30.57;;;12.53;;
5616;SDS011;2830;50.656;7.568;2023-06-19T01:28:59;25.73;;;11.23;;
5616;SDS011;2830;50.656;7.568;2023-06-19T01:31:28;21.73;;;9.93;;
5616;SDS011;2830;50.656;7.568;2023-06-19T01:34:01;25.30;;;11.13;;
5616;SDS011;2830;50.656;7.568;2023-06-19T01:36:30;22.97;;;10.67;;
5616;SDS011;2830;50.656;7.568;2023-06-19T01:38:58;22.60;;;10.10;;
5616;SDS011;2830;50.656;7.568;2023-06-19T01:41:26;25.33;;;10.50;;
5616;SDS011;2830;50.656;7.568;2023-06-19T01:43:55;23.50;;;10.63;;
5616;SDS011;2830;50.656;7.568;2023-06-19T01:46:22;24.50;;;10.30;;
5616;SDS011;2830;50.656;7.568;2023-06-19T01:48:49;23.50;;;9.67;;
5616;SDS011;2830;50.656;7.568;2023-06-19T01:51:16;28.77;;;10.93;;
5616;SDS011;2830;50.656;7.568;2023-06-19T01:53:43;26.23;;;11.43;;
5616;SDS011;2830;50.656;7.568;2023-06-19T01:56:09;30.77;;;13.40;;
5616;SDS011;2830;50.656;7.568;2023-06-19T01:58:36;22.27;;;10.20;;
5616;SDS011;2830;50.656;7.568;2023-06-19T02:01:03;27.97;;;11.13;;
5616;SDS011;2830;50.656;7.568;2023-06-19T02:03:30;23.27;;;10.60;;
5616;SDS011;2830;50.656;7.568;2023-06-19T02:05:56;23.83;;;10.73;;
5616;SDS011;2830;50.656;7.568;2023-06-19T02:08:23;26.13;;;10.70;;
5616;SDS011;2830;50.656;7.568;2023-06-19T02:10:50;25.10;;;10.50;;
5616;SDS011;2830;50.656;7.568;2023-06-19T02:13:16;26.20;;;11.20;;
5616;SDS011;2830;50.656;7.568;2023-06-19T02:15:43;23.87;;;9.83;;
5616;SDS011;2830;50.656;7.568;2023-06-19T02:18:10;24.17;;;10.50;;
5616;SDS011;2830;50.656;7.568;2023-06-19T02:20:37;23.60;;;11.00;;
5616;SDS011;2830;50.656;7.568;2023-06-19T02:23:03;23.70;;;10.67;;
5616;SDS011;2830;50.656;7.568;2023-06-19T02:25:30;22.30;;;10.10;;
5616;SDS011;2830;50.656;7.568;2023-06-19T02:27:57;24.70;;;11.33;;
5616;SDS011;2830;50.656;7.568;2023-06-19T02:30:23;22.70;;;10.33;;
5616;SDS011;2830;50.656;7.568;2023-06-19T02:32:51;25.80;;;10.60;;
5616;SDS011;2830;50.656;7.568;2023-06-19T02:35:17;23.37;;;10.50;;
5616;SDS011;2830;50.656;7.568;2023-06-19T02:37:44;23.23;;;9.73;;
5616;SDS011;2830;50.656;7.568;2023-06-19T02:40:12;21.37;;;8.97;;
5616;SDS011;2830;50.656;7.568;2023-06-19T02:42:40;20.67;;;9.37;;
5616;SDS011;2830;50.656;7.568;2023-06-19T02:45:07;22.00;;;9.30;;
5616;SDS011;2830;50.656;7.568;2023-06-19T02:47:34;24.70;;;10.93;;
5616;SDS011;2830;50.656;7.568;2023-06-19T02:50:01;24.00;;;10.07;;
5616;SDS011;2830;50.656;7.568;2023-06-19T02:52:29;22.30;;;9.43;;
5616;SDS011;2830;50.656;7.568;2023-06-19T02:54:56;22.80;;;10.40;;
5616;SDS011;2830;50.656;7.568;2023-06-19T02:57:23;27.97;;;10.60;;
5616;SDS011;2830;50.656;7.568;2023-06-19T02:59:50;23.57;;;9.97;;
5616;SDS011;2830;50.656;7.568;2023-06-19T03:02:16;25.83;;;10.60;;
5616;SDS011;2830;50.656;7.568;2023-06-19T03:04:43;29.50;;;11.53;;
5616;SDS011;2830;50.656;7.568;2023-06-19T03:07:10;25.13;;;10.30;;
5616;SDS011;2830;50.656;7.568;2023-06-19T03:09:40;27.37;;;10.40;;
5616;SDS011;2830;50.656;7.568;2023-06-19T03:12:07;23.40;;;10.93;;
5616;SDS011;2830;50.656;7.568;2023-06-19T03:14:34;26.60;;;10.57;;
5616;SDS011;2830;50.656;7.568;2023-06-19T03:17:01;23.10;;;10.13;;
5616;SDS011;2830;50.656;7.568;2023-06-19T03:19:28;23.40;;;10.40;;
5616;SDS011;2830;50.656;7.568;2023-06-19T03:21:55;25.73;;;10.07;;
5616;SDS011;2830;50.656;7.568;2023-06-19T03:24:21;25.77;;;10.47;;
5616;SDS011;2830;50.656;7.568;2023-06-19T03:26:48;22.93;;;10.43;;
5616;SDS011;2830;50.656;7.568;2023-06-19T03:29:15;25.30;;;10.80;;
5616;SDS011;2830;50.656;7.568;2023-06-19T03:31:42;22.97;;;10.37;;
5616;SDS011;2830;50.656;7.568;2023-06-19T03:34:08;22.57;;;10.07;;
5616;SDS011;2830;50.656;7.568;2023-06-19T03:36:35;22.17;;;10.50;;
5616;SDS011;2830;50.656;7.568;2023-06-19T03:39:02;25.37;;;11.10;;
5616;SDS011;2830;50.656;7.568;2023-06-19T03:41:28;22.23;;;10.23;;
5616;SDS011;2830;50.656;7.568;2023-06-19T03:43:55;24.10;;;10.50;;
5616;SDS011;2830;50.656;7.568;2023-06-19T03:46:22;21.50;;;9.90;;
5616;SDS011;2830;50.656;7.568;2023-06-19T03:48:48;25.93;;;10.17;;
5616;SDS011;2830;50.656;7.568;2023-06-19T03:51:15;23.30;;;10.30;;
5616;SDS011;2830;50.656;7.568;2023-06-19T03:53:42;23.37;;;10.03;;
5616;SDS011;2830;50.656;7.568;2023-06-19T03:56:09;22.43;;;9.30;;
5616;SDS011;2830;50.656;7.568;2023-06-19T03:58:36;23.67;;;9.33;;
5616;SDS011;2830;50.656;7.568;2023-06-19T04:01:03;23.70;;;9.70;;
5616;SDS011;2830;50.656;7.568;2023-06-19T04:03:31;25.33;;;10.57;;
5616;SDS011;2830;50.656;7.568;2023-06-19T04:05:58;26.13;;;11.03;;
5616;SDS011;2830;50.656;7.568;2023-06-19T04:08:25;25.80;;;10.33;;
5616;SDS011;2830;50.656;7.568;2023-06-19T04:10:52;24.13;;;11.07;;
5616;SDS011;2830;50.656;7.568;2023-06-19T04:13:19;21.60;;;9.00;;
5616;SDS011;2830;50.656;7.568;2023-06-19T04:15:46;25.70;;;10.10;;
5616;SDS011;2830;50.656;7.568;2023-06-19T04:18:16;23.23;;;10.63;;
5616;SDS011;2830;50.656;7.568;2023-06-19T04:20:43;24.00;;;10.27;;
5616;SDS011;2830;50.656;7.568;2023-06-19T04:23:10;24.57;;;9.10;;
5616;SDS011;2830;50.656;7.568;2023-06-19T04:25:36;24.37;;;10.37;;
5616;SDS011;2830;50.656;7.568;2023-06-19T04:28:03;23.63;;;10.40;;
5616;SDS011;2830;50.656;7.568;2023-06-19T04:30:30;22.03;;;9.40;;
5616;SDS011;2830;50.656;7.568;2023-06-19T04:32:57;23.50;;;10.13;;
5616;SDS011;2830;50.656;7.568;2023-06-19T04:35:24;23.93;;;10.03;;
5616;SDS011;2830;50.656;7.568;2023-06-19T04:37:52;23.40;;;10.30;;
5616;SDS011;2830;50.656;7.568;2023-06-19T04:40:19;22.50;;;9.67;;
5616;SDS011;2830;50.656;7.568;2023-06-19T04:42:47;21.97;;;9.33;;
5616;SDS011;2830;50.656;7.568;2023-06-19T04:45:13;22.77;;;10.00;;
5616;SDS011;2830;50.656;7.568;2023-06-19T04:47:40;22.67;;;9.00;;
5616;SDS011;2830;50.656;7.568;2023-06-19T04:50:19;24.10;;;9.70;;
5616;SDS011;2830;50.656;7.568;2023-06-19T04:52:47;25.93;;;9.77;;
5616;SDS011;2830;50.656;7.568;2023-06-19T04:55:17;26.67;;;10.20;;
5616;SDS011;2830;50.656;7.568;2023-06-19T04:57:44;27.53;;;10.40;;
5616;SDS011;2830;50.656;7.568;2023-06-19T05:00:11;21.87;;;9.83;;
5616;SDS011;2830;50.656;7.568;2023-06-19T05:02:38;23.23;;;9.40;;
5616;SDS011;2830;50.656;7.568;2023-06-19T05:05:09;25.00;;;9.20;;
5616;SDS011;2830;50.656;7.568;2023-06-19T05:07:36;24.77;;;7.90;;
5616;SDS011;2830;50.656;7.568;2023-06-19T05:10:03;23.60;;;9.67;;
5616;SDS011;2830;50.656;7.568;2023-06-19T05:12:30;23.43;;;9.17;;
5616;SDS011;2830;50.656;7.568;2023-06-19T05:14:57;29.00;;;9.33;;
5616;SDS011;2830;50.656;7.568;2023-06-19T05:17:23;23.57;;;8.17;;
5616;SDS011;2830;50.656;7.568;2023-06-19T05:19:51;27.90;;;8.77;;
5616;SDS011;2830;50.656;7.568;2023-06-19T05:22:18;23.33;;;7.40;;
5616;SDS011;2830;50.656;7.568;2023-06-19T05:24:47;21.53;;;7.57;;
5616;SDS011;2830;50.656;7.568;2023-06-19T05:27:14;21.77;;;7.67;;
5616;SDS011;2830;50.656;7.568;2023-06-19T05:29:41;21.70;;;6.10;;
5616;SDS011;2830;50.656;7.568;2023-06-19T05:32:07;18.10;;;5.60;;
5616;SDS011;2830;50.656;7.568;2023-06-19T05:34:34;22.47;;;6.63;;
5616;SDS011;2830;50.656;7.568;2023-06-19T05:37:01;26.50;;;7.17;;
5616;SDS011;2830;50.656;7.568;2023-06-19T05:39:29;21.53;;;6.20;;
5616;SDS011;2830;50.656;7.568;2023-06-19T05:41:56;20.73;;;7.40;;
5616;SDS011;2830;50.656;7.568;2023-06-19T05:44:23;29.53;;;7.20;;
5616;SDS011;2830;50.656;7.568;2023-06-19T05:46:50;24.97;;;6.80;;
5616;SDS011;2830;50.656;7.568;2023-06-19T05:49:16;24.37;;;7.07;;
5616;SDS011;2830;50.656;7.568;2023-06-19T05:51:43;21.40;;;7.63;;
5616;SDS011;2830;50.656;7.568;2023-06-19T05:54:10;18.53;;;5.77;;
5616;SDS011;2830;50.656;7.568;2023-06-19T05:56:36;26.47;;;6.67;;
5616;SDS011;2830;50.656;7.568;2023-06-19T05:59:03;21.27;;;6.80;;
5616;SDS011;2830;50.656;7.568;2023-06-19T06:01:30;19.83;;;6.33;;
5616;SDS011;2830;50.656;7.568;2023-06-19T06:03:57;20.87;;;6.87;;
5616;SDS011;2830;50.656;7.568;2023-06-19T06:06:24;23.10;;;6.47;;
5616;SDS011;2830;50.656;7.568;2023-06-19T06:08:52;20.10;;;6.10;;
5616;SDS011;2830;50.656;7.568;2023-06-19T06:11:19;22.30;;;5.60;;
5616;SDS011;2830;50.656;7.568;2023-06-19T06:13:45;20.03;;;6.37;;
5616;SDS011;2830;50.656;7.568;2023-06-19T06:16:12;19.17;;;5.93;;
5616;SDS011;2830;50.656;7.568;2023-06-19T06:18:40;18.93;;;5.27;;
5616;SDS011;2830;50.656;7.568;2023-06-19T06:21:07;19.37;;;5.30;;
5616;SDS011;2830;50.656;7.568;2023-06-19T06:23:34;19.07;;;6.10;;
5616;SDS011;2830;50.656;7.568;2023-06-19T06:26:01;21.90;;;5.90;;
5616;SDS011;2830;50.656;7.568;2023-06-19T06:28:29;18.50;;;5.37;;
5616;SDS011;2830;50.656;7.568;2023-06-19T06:30:56;19.53;;;6.70;;
5616;SDS011;2830;50.656;7.568;2023-06-19T06:33:25;22.03;;;6.23;;
5616;SDS011;2830;50.656;7.568;2023-06-19T06:35:54;18.20;;;5.50;;
5616;SDS011;2830;50.656;7.568;2023-06-19T06:38:21;18.57;;;5.47;;
5616;SDS011;2830;50.656;7.568;2023-06-19T06:40:48;19.77;;;5.90;;
5616;SDS011;2830;50.656;7.568;2023-06-19T06:43:16;19.53;;;6.40;;
5616;SDS011;2830;50.656;7.568;2023-06-19T06:45:42;20.90;;;6.77;;
5616;SDS011;2830;50.656;7.568;2023-06-19T06:48:09;22.20;;;5.40;;
5616;SDS011;2830;50.656;7.568;2023-06-19T06:50:36;20.60;;;6.10;;
5616;SDS011;2830;50.656;7.568;2023-06-19T06:53:03;18.67;;;5.33;;
5616;SDS011;2830;50.656;7.568;2023-06-19T06:55:30;19.80;;;6.07;;
5616;SDS011;2830;50.656;7.568;2023-06-19T06:57:56;19.50;;;5.77;;
5616;SDS011;2830;50.656;7.568;2023-06-19T07:00:23;20.60;;;5.40;;
5616;SDS011;2830;50.656;7.568;2023-06-19T07:02:50;19.97;;;5.90;;
5616;SDS011;2830;50.656;7.568;2023-06-19T07:05:17;19.13;;;5.30;;
5616;SDS011;2830;50.656;7.568;2023-06-19T07:07:44;20.60;;;7.10;;
5616;SDS011;2830;50.656;7.568;2023-06-19T07:10:12;19.13;;;4.60;;
5616;SDS011;2830;50.656;7.568;2023-06-19T07:12:46;19.03;;;5.00;;
5616;SDS011;2830;50.656;7.568;2023-06-19T07:15:14;20.00;;;4.57;;
5616;SDS011;2830;50.656;7.568;2023-06-19T07:17:41;21.20;;;4.80;;
5616;SDS011;2830;50.656;7.568;2023-06-19T07:20:09;18.47;;;4.63;;
5616;SDS011;2830;50.656;7.568;2023-06-19T07:22:37;20.17;;;4.53;;
5616;SDS011;2830;50.656;7.568;2023-06-19T07:25:04;19.57;;;4.73;;
5616;SDS011;2830;50.656;7.568;2023-06-19T07:27:31;19.40;;;4.90;;
5616;SDS011;2830;50.656;7.568;2023-06-19T07:29:58;18.00;;;4.30;;
5616;SDS011;2830;50.656;7.568;2023-06-19T07:32:25;20.30;;;4.20;;
5616;SDS011;2830;50.656;7.568;2023-06-19T07:34:51;16.17;;;4.57;;
5616;SDS011;2830;50.656;7.568;2023-06-19T07:37:19;15.27;;;4.30;;
5616;SDS011;2830;50.656;7.568;2023-06-19T07:39:47;15.07;;;3.70;;
5616;SDS011;2830;50.656;7.568;2023-06-19T07:42:16;16.33;;;3.40;;
5616;SDS011;2830;50.656;7.568;2023-06-19T07:44:44;15.23;;;4.00;;
5616;SDS011;2830;50.656;7.568;2023-06-19T07:47:12;14.40;;;3.13;;
5616;SDS011;2830;50.656;7.568;2023-06-19T07:49:40;18.00;;;4.70;;
5616;SDS011;2830;50.656;7.568;2023-06-19T07:52:07;17.83;;;5.40;;
5616;SDS011;2830;50.656;7.568;2023-06-19T07:54:47;14.47;;;3.00;;
5616;SDS011;2830;50.656;7.568;2023-06-19T07:57:17;18.40;;;6.43;;
5616;SDS011;2830;50.656;7.568;2023-06-19T07:59:44;15.17;;;2.63;;
5616;SDS011;2830;50.656;7.568;2023-06-19T08:02:11;15.70;;;3.53;;
5616;SDS011;2830;50.656;7.568;2023-06-19T08:04:37;14.87;;;3.20;;
5616;SDS011;2830;50.656;7.568;2023-06-19T08:07:04;15.57;;;3.30;;
5616;SDS011;2830;50.656;7.568;2023-06-19T08:09:31;16.00;;;4.40;;
5616;SDS011;2830;50.656;7.568;2023-06-19T08:11:58;15.80;;;3.40;;
5616;SDS011;2830;50.656;7.568;2023-06-19T08:14:25;21.93;;;3.97;;
5616;SDS011;2830;50.656;7.568;2023-06-19T08:16:52;14.40;;;2.97;;
5616;SDS011;2830;50.656;7.568;2023-06-19T08:19:19;19.00;;;4.00;;
5616;SDS011;2830;50.656;7.568;2023-06-19T08:21:45;19.10;;;2.83;;
5616;SDS011;2830;50.656;7.568;2023-06-19T08:24:12;16.90;;;2.53;;
5616;SDS011;2830;50.656;7.568;2023-06-19T08:26:39;16.77;;;2.40;;
5616;SDS011;2830;50.656;7.568;2023-06-19T08:29:06;16.53;;;2.60;;
5616;SDS011;2830;50.656;7.568;2023-06-19T08:31:32;18.27;;;2.80;;
5616;SDS011;2830;50.656;7.568;2023-06-19T08:34:00;17.53;;;2.60;;
5616;SDS011;2830;50.656;7.568;2023-06-19T08:36:30;17.27;;;2.57;;
5616;SDS011;2830;50.656;7.568;2023-06-19T08:38:57;20.20;;;2.70;;
5616;SDS011;2830;50.656;7.568;2023-06-19T08:41:24;17.13;;;2.53;;
5616;SDS011;2830;50.656;7.568;2023-06-19T08:43:51;18.83;;;3.00;;
5616;SDS011;2830;50.656;7.568;2023-06-19T08:46:18;17.50;;;2.67;;
5616;SDS011;2830;50.656;7.568;2023-06-19T08:48:45;18.13;;;2.80;;
5616;SDS011;2830;50.656;7.568;2023-06-19T08:51:12;17.03;;;2.33;;
5616;SDS011;2830;50.656;7.568;2023-06-19T08:54:24;17.30;;;2.60;;
5616;SDS011;2830;50.656;7.568;2023-06-19T08:56:33;25.60;;;2.90;;
5616;SDS011;2830;50.656;7.568;2023-06-19T08:59:11;17.00;;;2.53;;
5616;SDS011;2830;50.656;7.568;2023-06-19T09:01:48;21.60;;;2.77;;
5616;SDS011;2830;50.656;7.568;2023-06-19T09:04:23;17.70;;;3.23;;
5616;SDS011;2830;50.656;7.568;2023-06-19T09:06:53;16.57;;;2.40;;
5616;SDS011;2830;50.656;7.568;2023-06-19T09:09:25;18.23;;;2.70;;
5616;SDS011;2830;50.656;7.568;2023-06-19T09:14:37;17.17;;;2.30;;
5616;SDS011;2830;50.656;7.568;2023-06-19T09:17:06;18.33;;;2.50;;
5616;SDS011;2830;50.656;7.568;2023-06-19T09:19:49;17.87;;;2.63;;
5616;SDS011;2830;50.656;7.568;2023-06-19T09:22:18;16.97;;;2.30;;
5616;SDS011;2830;50.656;7.568;2023-06-19T09:24:47;18.30;;;2.57;;
5616;SDS011;2830;50.656;7.568;2023-06-19T09:27:15;17.20;;;2.47;;
5616;SDS011;2830;50.656;7.568;2023-06-19T09:29:45;16.93;;;2.50;;
5616;SDS011;2830;50.656;7.568;2023-06-19T09:34:51;16.50;;;2.50;;
5616;SDS011;2830;50.656;7.568;2023-06-19T09:37:24;17.97;;;2.60;;
5616;SDS011;2830;50.656;7.568;2023-06-19T09:39:53;16.40;;;2.47;;
5616;SDS011;2830;50.656;7.568;2023-06-19T09:42:37;16.67;;;2.30;;
5616;SDS011;2830;50.656;7.568;2023-06-19T09:45:06;16.77;;;2.30;;
5616;SDS011;2830;50.656;7.568;2023-06-19T09:47:47;19.80;;;2.80;;
5616;SDS011;2830;50.656;7.568;2023-06-19T09:50:17;18.57;;;2.23;;
5616;SDS011;2830;50.656;7.568;2023-06-19T09:52:45;18.73;;;2.67;;
5616;SDS011;2830;50.656;7.568;2023-06-19T09:55:12;17.17;;;2.00;;
5616;SDS011;2830;50.656;7.568;2023-06-19T09:57:41;17.10;;;1.90;;
5616;SDS011;2830;50.656;7.568;2023-06-19T10:00:11;18.20;;;2.33;;
5616;SDS011;2830;50.656;7.568;2023-06-19T10:02:49;17.60;;;2.27;;
5616;SDS011;2830;50.656;7.568;2023-06-19T10:05:16;17.70;;;2.53;;
5616;SDS011;2830;50.656;7.568;2023-06-19T10:07:45;18.90;;;2.37;;
5616;SDS011;2830;50.656;7.568;2023-06-19T10:10:22;19.13;;;2.50;;
5616;SDS011;2830;50.656;7.568;2023-06-19T10:12:52;23.10;;;2.40;;
5616;SDS011;2830;50.656;7.568;2023-06-19T10:15:22;18.37;;;2.37;;
5616;SDS011;2830;50.656;7.568;2023-06-19T10:17:59;18.67;;;1.80;;
5616;SDS011;2830;50.656;7.568;2023-06-19T10:20:30;17.77;;;2.23;;
5616;SDS011;2830;50.656;7.568;2023-06-19T10:23:12;17.10;;;2.10;;
5616;SDS011;2830;50.656;7.568;2023-06-19T10:25:47;17.80;;;2.33;;
5616;SDS011;2830;50.656;7.568;2023-06-19T10:28:24;17.63;;;2.13;;
5616;SDS011;2830;50.656;7.568;2023-06-19T10:30:56;18.60;;;1.90;;
5616;SDS011;2830;50.656;7.568;2023-06-19T10:33:26;17.97;;;1.90;;
5616;SDS011;2830;50.656;7.568;2023-06-19T10:35:54;18.13;;;2.40;;
5616;SDS011;2830;50.656;7.568;2023-06-19T10:38:21;21.37;;;2.57;;
5616;SDS011;2830;50.656;7.568;2023-06-19T10:40:48;18.03;;;2.03;;
5616;SDS011;2830;50.656;7.568;2023-06-19T10:43:24;23.30;;;2.07;;
5616;SDS011;2830;50.656;7.568;2023-06-19T10:45:56;19.30;;;2.00;;
5616;SDS011;2830;50.656;7.568;2023-06-19T10:48:24;18.20;;;1.70;;
5616;SDS011;2830;50.656;7.568;2023-06-19T10:50:51;17.10;;;1.80;;
5616;SDS011;2830;50.656;7.568;2023-06-19T10:53:31;17.73;;;2.23;;
5616;SDS011;2830;50.656;7.568;2023-06-19T10:56:00;22.83;;;2.07;;
5616;SDS011;2830;50.656;7.568;2023-06-19T10:58:28;17.60;;;2.10;;
5616;SDS011;2830;50.656;7.568;2023-06-19T11:00:55;18.10;;;1.90;;
5616;SDS011;2830;50.656;7.568;2023-06-19T11:03:23;17.60;;;2.00;;
5616;SDS011;2830;50.656;7.568;2023-06-19T11:05:50;18.63;;;1.90;;
5616;SDS011;2830;50.656;7.568;2023-06-19T11:08:17;18.83;;;1.90;;
5616;SDS011;2830;50.656;7.568;2023-06-19T11:10:45;19.13;;;1.80;;
5616;SDS011;2830;50.656;7.568;2023-06-19T11:13:16;18.60;;;2.20;;
5616;SDS011;2830;50.656;7.568;2023-06-19T11:15:44;20.17;;;2.10;;
5616;SDS011;2830;50.656;7.568;2023-06-19T11:18:14;19.20;;;2.53;;
5616;SDS011;2830;50.656;7.568;2023-06-19T11:20:46;18.50;;;2.50;;
5616;SDS011;2830;50.656;7.568;2023-06-19T11:23:25;17.40;;;1.83;;
5616;SDS011;2830;50.656;7.568;2023-06-19T11:26:03;19.20;;;2.10;;
5616;SDS011;2830;50.656;7.568;2023-06-19T11:28:30;18.20;;;1.80;;
5616;SDS011;2830;50.656;7.568;2023-06-19T11:30:58;17.80;;;1.90;;
5616;SDS011;2830;50.656;7.568;2023-06-19T11:33:28;18.73;;;2.13;;
5616;SDS011;2830;50.656;7.568;2023-06-19T11:35:59;22.53;;;2.40;;
5616;SDS011;2830;50.656;7.568;2023-06-19T11:38:27;17.73;;;1.90;;
5616;SDS011;2830;50.656;7.568;2023-06-19T11:40:54;17.60;;;2.00;;
5616;SDS011;2830;50.656;7.568;2023-06-19T11:43:32;17.90;;;1.87;;
5616;SDS011;2830;50.656;7.568;2023-06-19T11:46:05;18.10;;;2.40;;
5616;SDS011;2830;50.656;7.568;2023-06-19T11:48:36;18.20;;;2.30;;
5616;SDS011;2830;50.656;7.568;2023-06-19T11:51:03;18.10;;;2.20;;
5616;SDS011;2830;50.656;7.568;2023-06-19T11:53:30;18.00;;;2.03;;
5616;SDS011;2830;50.656;7.568;2023-06-19T11:55:57;18.47;;;2.30;;
5616;SDS011;2830;50.656;7.568;2023-06-19T11:58:24;17.70;;;1.90;;
5616;SDS011;2830;50.656;7.568;2023-06-19T12:00:52;18.20;;;2.33;;
5616;SDS011;2830;50.656;7.568;2023-06-19T12:03:19;18.83;;;2.30;;
5616;SDS011;2830;50.656;7.568;2023-06-19T12:05:46;18.07;;;2.13;;
5616;SDS011;2830;50.656;7.568;2023-06-19T12:08:13;18.00;;;2.13;;
5616;SDS011;2830;50.656;7.568;2023-06-19T12:10:40;19.40;;;2.13;;
5616;SDS011;2830;50.656;7.568;2023-06-19T12:13:07;18.03;;;1.80;;
5616;SDS011;2830;50.656;7.568;2023-06-19T12:15:35;18.57;;;2.10;;
5616;SDS011;2830;50.656;7.568;2023-06-19T12:18:03;20.77;;;2.50;;
5616;SDS011;2830;50.656;7.568;2023-06-19T12:20:30;18.50;;;2.20;;
5616;SDS011;2830;50.656;7.568;2023-06-19T12:22:57;19.10;;;2.17;;
5616;SDS011;2830;50.656;7.568;2023-06-19T12:25:24;18.80;;;2.13;;
5616;SDS011;2830;50.656;7.568;2023-06-19T12:27:50;20.73;;;2.50;;
5616;SDS011;2830;50.656;7.568;2023-06-19T12:30:21;20.37;;;2.40;;
5616;SDS011;2830;50.656;7.568;2023-06-19T12:32:48;19.47;;;2.47;;
5616;SDS011;2830;50.656;7.568;2023-06-19T12:35:16;21.43;;;2.00;;
5616;SDS011;2830;50.656;7.568;2023-06-19T12:37:44;18.40;;;2.30;;
5616;SDS011;2830;50.656;7.568;2023-06-19T12:40:11;18.27;;;2.23;;
5616;SDS011;2830;50.656;7.568;2023-06-19T12:42:37;19.40;;;2.40;;
5616;SDS011;2830;50.656;7.568;2023-06-19T12:45:04;18.17;;;2.30;;
5616;SDS011;2830;50.656;7.568;2023-06-19T12:47:32;19.20;;;2.30;;
5616;SDS011;2830;50.656;7.568;2023-06-19T12:49:58;18.00;;;2.10;;
5616;SDS011;2830;50.656;7.568;2023-06-19T12:52:26;18.70;;;2.33;;
5616;SDS011;2830;50.656;7.568;2023-06-19T12:54:53;19.43;;;2.70;;
5616;SDS011;2830;50.656;7.568;2023-06-19T12:57:19;19.30;;;2.83;;
5616;SDS011;2830;50.656;7.568;2023-06-19T12:59:46;19.53;;;2.40;;
5616;SDS011;2830;50.656;7.568;2023-06-19T13:02:13;18.53;;;2.70;;
5616;SDS011;2830;50.656;7.568;2023-06-19T13:04:41;18.50;;;2.70;;
5616;SDS011;2830;50.656;7.568;2023-06-19T13:07:07;19.20;;;2.77;;
5616;SDS011;2830;50.656;7.568;2023-06-19T13:09:34;22.53;;;2.63;;
5616;SDS011;2830;50.656;7.568;2023-06-19T13:12:02;20.80;;;2.57;;
5616;SDS011;2830;50.656;7.568;2023-06-19T13:14:29;18.67;;;2.33;;
5616;SDS011;2830;50.656;7.568;2023-06-19T13:16:57;18.30;;;2.60;;
5616;SDS011;2830;50.656;7.568;2023-06-19T13:19:25;18.30;;;2.57;;
5616;SDS011;2830;50.656;7.568;2023-06-19T13:21:52;21.53;;;4.73;;
5616;SDS011;2830;50.656;7.568;2023-06-19T13:24:19;20.00;;;2.70;;
5616;SDS011;2830;50.656;7.568;2023-06-19T13:26:46;18.97;;;2.47;;
5616;SDS011;2830;50.656;7.568;2023-06-19T13:29:15;20.23;;;3.10;;
5616;SDS011;2830;50.656;7.568;2023-06-19T13:31:42;21.07;;;4.20;;
5616;SDS011;2830;50.656;7.568;2023-06-19T13:34:08;23.33;;;2.80;;
5616;SDS011;2830;50.656;7.568;2023-06-19T13:36:35;19.27;;;2.50;;
5616;SDS011;2830;50.656;7.568;2023-06-19T13:39:02;18.17;;;2.47;;
5616;SDS011;2830;50.656;7.568;2023-06-19T13:41:29;19.23;;;3.07;;
5616;SDS011;2830;50.656;7.568;2023-06-19T13:43:59;18.30;;;2.50;;
5616;SDS011;2830;50.656;7.568;2023-06-19T13:46:26;19.73;;;2.87;;
5616;SDS011;2830;50.656;7.568;2023-06-19T13:48:53;18.30;;;2.60;;
5616;SDS011;2830;50.656;7.568;2023-06-19T13:51:21;25.00;;;2.77;;
5616;SDS011;2830;50.656;7.568;2023-06-19T13:53:48;19.03;;;2.77;;
5616;SDS011;2830;50.656;7.568;2023-06-19T13:56:15;21.20;;;2.77;;
5616;SDS011;2830;50.656;7.568;2023-06-19T13:58:42;23.97;;;2.60;;
5616;SDS011;2830;50.656;7.568;2023-06-19T14:01:09;20.37;;;2.50;;
5616;SDS011;2830;50.656;7.568;2023-06-19T14:03:37;18.43;;;2.27;;
5616;SDS011;2830;50.656;7.568;2023-06-19T14:06:06;20.73;;;2.43;;
5616;SDS011;2830;50.656;7.568;2023-06-19T14:08:33;18.40;;;2.73;;
5616;SDS011;2830;50.656;7.568;2023-06-19T14:10:59;18.90;;;2.63;;
5616;SDS011;2830;50.656;7.568;2023-06-19T14:13:26;18.40;;;2.60;;
5616;SDS011;2830;50.656;7.568;2023-06-19T14:15:53;19.33;;;2.43;;
5616;SDS011;2830;50.656;7.568;2023-06-19T14:18:20;21.97;;;3.50;;
5616;SDS011;2830;50.656;7.568;2023-06-19T14:20:47;18.53;;;2.87;;
5616;SDS011;2830;50.656;7.568;2023-06-19T14:23:13;18.20;;;2.40;;
5616;SDS011;2830;50.656;7.568;2023-06-19T14:25:40;19.30;;;2.70;;
5616;SDS011;2830;50.656;7.568;2023-06-19T14:28:10;19.30;;;2.70;;
5616;SDS011;2830;50.656;7.568;2023-06-19T14:30:37;19.10;;;2.40;;
5616;SDS011;2830;50.656;7.568;2023-06-19T14:33:04;19.30;;;2.70;;
5616;SDS011;2830;50.656;7.568;2023-06-19T14:35:31;22.03;;;2.93;;
5616;SDS011;2830;50.656;7.568;2023-06-19T14:37:58;18.70;;;2.80;;
5616;SDS011;2830;50.656;7.568;2023-06-19T14:40:25;19.07;;;2.57;;
5616;SDS011;2830;50.656;7.568;2023-06-19T14:42:52;20.40;;;2.80;;
5616;SDS011;2830;50.656;7.568;2023-06-19T14:45:18;19.13;;;2.73;;
5616;SDS011;2830;50.656;7.568;2023-06-19T14:47:45;20.50;;;2.50;;
5616;SDS011;2830;50.656;7.568;2023-06-19T14:50:12;18.80;;;2.47;;
5616;SDS011;2830;50.656;7.568;2023-06-19T14:52:39;18.83;;;2.80;;
5616;SDS011;2830;50.656;7.568;2023-06-19T14:55:06;19.30;;;2.70;;
5616;SDS011;2830;50.656;7.568;2023-06-19T14:57:33;20.40;;;2.60;;
5616;SDS011;2830;50.656;7.568;2023-06-19T14:59:59;19.13;;;2.93;;
5616;SDS011;2830;50.656;7.568;2023-06-19T15:02:26;18.60;;;2.60;;
5616;SDS011;2830;50.656;7.568;2023-06-19T15:04:53;19.07;;;2.50;;
5616;SDS011;2830;50.656;7.568;2023-06-19T15:07:32;18.00;;;2.40;;
5616;SDS011;2830;50.656;7.568;2023-06-19T15:09:59;20.80;;;3.10;;
5616;SDS011;2830;50.656;7.568;2023-06-19T15:12:26;19.17;;;2.87;;